createdAt,value
2022-10-08T00:01:22.353Z,96891.09
2022-10-08T00:03:53.635Z,96887.25
2022-10-08T00:06:24.096Z,96889.63
2022-10-08T00:08:53.690Z,96884.00
2022-10-08T00:11:24.376Z,96877.34
2022-10-08T00:13:53.337Z,96884.00
2022-10-08T00:16:24.983Z,96885.97
2022-10-08T00:18:54.099Z,96886.94
2022-10-08T00:21:26.039Z,96882.13
2022-10-08T00:23:54.245Z,96883.84
2022-10-08T00:26:24.707Z,96886.78
2022-10-08T00:28:54.820Z,96882.22
2022-10-08T00:31:24.466Z,96878.47
2022-10-08T00:33:53.127Z,96879.28
2022-10-08T00:36:21.116Z,96870.34
2022-10-08T00:38:50.279Z,96870.34
2022-10-08T00:41:20.799Z,96870.47
2022-10-08T00:43:51.665Z,96876.19
2022-10-08T00:46:25.609Z,96866.06
2022-10-08T00:48:58.113Z,96835.09
2022-10-08T00:51:26.323Z,96858.47
2022-10-08T00:53:55.958Z,96861.66
2022-10-08T00:56:24.288Z,96865.22
2022-10-08T00:58:53.064Z,96869.13
2022-10-08T01:01:20.913Z,96854.09
2022-10-08T01:03:48.658Z,96846.66
2022-10-08T01:06:25.848Z,96851.91
2022-10-08T01:09:01.161Z,96837.13
2022-10-08T01:11:46.131Z,96841.72
2022-10-08T01:14:26.040Z,96840.88
2022-10-08T01:17:01.651Z,96848.63
2022-10-08T01:19:54.868Z,96838.69
2022-10-08T01:22:38.829Z,96842.19
2022-10-08T01:25:34.964Z,96836.00
2022-10-08T01:28:12.410Z,96840.78
2022-10-08T01:30:46.559Z,96838.38
2022-10-08T01:33:22.671Z,96833.94
2022-10-08T01:35:57.256Z,96828.22
2022-10-08T01:38:29.196Z,96826.75
2022-10-08T01:41:00.296Z,96839.28
2022-10-08T01:43:34.635Z,96829.00
2022-10-08T01:46:06.661Z,96834.72
2022-10-08T01:48:36.065Z,96834.81
2022-10-08T01:51:08.636Z,96833.28
2022-10-08T01:53:40.550Z,96824.16
2022-10-08T01:56:12.671Z,96826.28
2022-10-08T01:58:44.283Z,96830.91
2022-10-08T02:01:16.551Z,96816.94
2022-10-08T02:04:04.322Z,96822.63
2022-10-08T02:06:37.215Z,96824.34
2022-10-08T02:09:05.842Z,96820.13
2022-10-08T02:11:35.739Z,96814.75
2022-10-08T02:14:06.571Z,96817.53
2022-10-08T02:16:36.907Z,96813.38
2022-10-08T02:19:09.530Z,96813.94
2022-10-08T02:21:40.768Z,96808.22
2022-10-08T02:24:14.216Z,96816.88
2022-10-08T02:26:47.388Z,96818.31
2022-10-08T02:29:21.529Z,96810.91
2022-10-08T02:31:54.711Z,96817.44
2022-10-08T02:34:26.653Z,96811.31
2022-10-08T02:36:59.497Z,96804.56
2022-10-08T02:39:30.677Z,96806.94
2022-10-08T02:42:03.003Z,96808.72
2022-10-08T02:44:37.092Z,96816.06
2022-10-08T02:47:09.811Z,96817.16
2022-10-08T02:49:41.039Z,96819.28
2022-10-08T02:52:10.714Z,96824.88
2022-10-08T02:54:40.639Z,96822.66
2022-10-08T02:57:14.446Z,96821.97
2022-10-08T02:59:44.461Z,96827.91
2022-10-08T03:02:16.826Z,96828.22
2022-10-08T03:04:49.430Z,96832.56
2022-10-08T03:07:17.754Z,96833.38
2022-10-08T03:09:48.666Z,96830.44
2022-10-08T03:12:16.502Z,96829.63
2022-10-08T03:14:48.867Z,96829.16
2022-10-08T03:17:23.216Z,96821.75
2022-10-08T03:19:51.519Z,96826.56
2022-10-08T03:22:19.396Z,96831.97
2022-10-08T03:24:47.066Z,96835.00
2022-10-08T03:27:14.827Z,96838.28
2022-10-08T03:29:42.663Z,96828.81
2022-10-08T03:32:11.810Z,96838.75
2022-10-08T03:34:39.457Z,96839.81
2022-10-08T03:37:07.170Z,96842.97
2022-10-08T03:39:34.884Z,96835.97
2022-10-08T03:42:02.647Z,96838.66
2022-10-08T03:44:30.329Z,96834.00
2022-10-08T03:46:58.020Z,96837.03
2022-10-08T03:49:27.208Z,96823.81
2022-10-08T03:51:54.890Z,96829.19
2022-10-08T03:54:22.765Z,96840.06
2022-10-08T03:56:50.459Z,96838.00
2022-10-08T03:59:18.111Z,96840.66
2022-10-08T04:01:45.860Z,96840.78
2022-10-08T04:04:13.578Z,96841.34
2022-10-08T04:06:42.801Z,96840.28
2022-10-08T04:09:11.261Z,96850.56
2022-10-08T04:11:39.007Z,96845.19
2022-10-08T04:14:06.860Z,96847.03
2022-10-08T04:16:34.549Z,96838.66
2022-10-08T04:19:02.401Z,96834.91
2022-10-08T04:21:31.510Z,96839.66
2022-10-08T04:24:00.538Z,96834.66
2022-10-08T04:26:28.188Z,96827.53
2022-10-08T04:28:55.968Z,96828.91
2022-10-08T04:31:24.682Z,96832.06
2022-10-08T04:33:53.363Z,96834.28
2022-10-08T04:36:23.219Z,96817.66
2022-10-08T04:38:51.150Z,96831.66
2022-10-08T04:41:22.318Z,96840.38
2022-10-08T04:43:50.375Z,96812.75
2022-10-08T04:46:19.966Z,96838.75
2022-10-08T04:48:49.355Z,96842.59
2022-10-08T04:51:17.761Z,96834.28
2022-10-08T04:53:46.219Z,96840.00
2022-10-08T04:56:16.931Z,96845.13
2022-10-08T04:58:46.325Z,96842.38
2022-10-08T05:01:16.816Z,96846.19
2022-10-08T05:03:47.202Z,96840.81
2022-10-08T05:06:16.524Z,96841.31
2022-10-08T05:08:44.921Z,96838.53
2022-10-08T05:11:13.787Z,96833.50
2022-10-08T05:13:41.819Z,96841.38
2022-10-08T05:16:12.641Z,96826.84
2022-10-08T05:18:41.876Z,96830.88
2022-10-08T05:21:12.158Z,96838.47
2022-10-08T05:23:42.620Z,96843.25
2022-10-08T05:26:16.548Z,96839.81
2022-10-08T05:28:44.348Z,96839.72
2022-10-08T05:31:13.604Z,96841.34
2022-10-08T05:33:41.417Z,96841.94
2022-10-08T05:36:16.379Z,96846.16
2022-10-08T05:38:44.689Z,96837.78
2022-10-08T05:41:13.799Z,96846.03
2022-10-08T05:43:41.597Z,96849.19
2022-10-08T05:46:09.624Z,96859.25
2022-10-08T05:48:39.668Z,96864.72
2022-10-08T05:51:08.495Z,96858.75
2022-10-08T05:53:37.498Z,96865.38
2022-10-08T05:56:07.112Z,96862.91
2022-10-08T05:58:36.272Z,96867.81
2022-10-08T06:01:06.656Z,96874.91
2022-10-08T06:03:34.517Z,96868.47
2022-10-08T06:06:05.872Z,96878.81
2022-10-08T06:08:34.839Z,96875.34
2022-10-08T06:11:03.229Z,96877.66
2022-10-08T06:13:30.974Z,96873.91
2022-10-08T06:15:59.928Z,96874.22
2022-10-08T06:18:29.844Z,96876.38
2022-10-08T06:20:58.053Z,96881.97
2022-10-08T06:23:27.153Z,96885.41
2022-10-08T06:25:54.969Z,96880.91
2022-10-08T06:28:22.709Z,96887.44
2022-10-08T06:30:50.473Z,96895.41
2022-10-08T06:33:18.172Z,96893.22
2022-10-08T06:35:45.918Z,96895.28
2022-10-08T06:38:13.940Z,96892.66
2022-10-08T06:40:43.085Z,96895.09
2022-10-08T06:43:13.779Z,96896.47
2022-10-08T06:45:42.027Z,96901.22
2022-10-08T06:48:09.838Z,96900.16
2022-10-08T06:50:38.827Z,96911.72
2022-10-08T06:53:08.442Z,96891.59
2022-10-08T06:55:37.247Z,96905.41
2022-10-08T06:58:07.045Z,96910.16
2022-10-08T07:00:34.894Z,96916.00
2022-10-08T07:03:02.767Z,96912.94
2022-10-08T07:05:30.470Z,96920.34
2022-10-08T07:07:58.192Z,96920.09
2022-10-08T07:10:29.706Z,96915.44
2022-10-08T07:13:00.254Z,96923.09
2022-10-08T07:15:31.217Z,96921.69
2022-10-08T07:17:58.900Z,96921.19
2022-10-08T07:20:26.660Z,96924.91
2022-10-08T07:22:54.377Z,96921.19
2022-10-08T07:25:22.284Z,96914.00
2022-10-08T07:27:52.717Z,96922.16
2022-10-08T07:30:20.466Z,96916.59
2022-10-08T07:32:49.754Z,96904.88
2022-10-08T07:35:18.145Z,96903.81
2022-10-08T07:37:45.917Z,96916.03
2022-10-08T07:40:13.617Z,96913.06
2022-10-08T07:42:41.330Z,96918.38
2022-10-08T07:45:09.892Z,96918.09
2022-10-08T07:47:37.573Z,96910.63
2022-10-08T07:50:07.270Z,96912.94
2022-10-08T07:52:34.949Z,96911.50
2022-10-08T07:55:02.689Z,96920.00
2022-10-08T07:57:30.375Z,96924.81
2022-10-08T07:59:58.116Z,96919.72
2022-10-08T08:02:25.929Z,96915.75
2022-10-08T08:04:53.675Z,96909.09
2022-10-08T08:07:22.729Z,96914.00
2022-10-08T08:09:50.751Z,96918.13
2022-10-08T08:12:18.472Z,96918.41
2022-10-08T08:14:46.163Z,96921.75
2022-10-08T08:17:13.820Z,96921.13
2022-10-08T08:19:41.678Z,96920.44
2022-10-08T08:22:09.339Z,96917.88
2022-10-08T08:24:44.713Z,96901.75
2022-10-08T08:27:12.476Z,96920.41
2022-10-08T08:29:40.359Z,96926.72
2022-10-08T08:32:08.052Z,96918.72
2022-10-08T08:34:35.802Z,96923.31
2022-10-08T08:37:03.473Z,96923.47
2022-10-08T08:39:31.923Z,96918.44
2022-10-08T08:42:14.797Z,96911.53
2022-10-08T08:44:45.896Z,96902.56
2022-10-08T08:47:18.402Z,96908.53
2022-10-08T08:49:51.920Z,96913.63
2022-10-08T08:52:22.663Z,96921.94
2022-10-08T08:54:53.256Z,96934.31
2022-10-08T08:57:34.722Z,96923.41
2022-10-08T09:00:06.231Z,96932.94
2022-10-08T09:02:38.501Z,96934.03
2022-10-08T09:05:12.059Z,96939.53
2022-10-08T09:07:43.987Z,96936.34
2022-10-08T09:10:17.836Z,96936.84
2022-10-08T09:12:48.541Z,96936.94
2022-10-08T09:15:20.607Z,96931.53
2022-10-08T09:17:52.723Z,96941.28
2022-10-08T09:20:23.845Z,96941.81
2022-10-08T09:22:52.425Z,96944.44
2022-10-08T09:25:22.486Z,96942.31
2022-10-08T09:27:53.940Z,96934.78
2022-10-08T09:30:30.625Z,96940.69
2022-10-08T09:33:00.878Z,96942.34
2022-10-08T09:35:28.778Z,96953.66
2022-10-08T09:37:59.924Z,96950.47
2022-10-08T09:40:31.162Z,96947.19
2022-10-08T09:43:18.513Z,96949.84
2022-10-08T09:45:47.654Z,96956.84
2022-10-08T09:48:24.203Z,96965.59
2022-10-08T09:50:56.470Z,96955.25
2022-10-08T09:53:26.721Z,96940.88
2022-10-08T09:55:58.510Z,96951.78
2022-10-08T09:58:31.919Z,96944.50
2022-10-08T10:01:03.792Z,96955.34
2022-10-08T10:03:32.511Z,96953.72
2022-10-08T10:06:01.556Z,96956.97
2022-10-08T10:08:54.191Z,96961.00
2022-10-08T10:11:27.687Z,96945.88
2022-10-08T10:14:00.365Z,96956.44
2022-10-08T10:16:33.805Z,96954.22
2022-10-08T10:19:07.108Z,96949.41
2022-10-08T10:21:41.631Z,96960.69
2022-10-08T10:24:27.465Z,96949.84
2022-10-08T10:26:58.021Z,96947.66
2022-10-08T10:29:33.138Z,96951.53
2022-10-08T10:32:06.913Z,96947.91
2022-10-08T10:34:39.287Z,96950.63
2022-10-08T10:37:13.243Z,96944.72
2022-10-08T10:39:45.696Z,96944.22
2022-10-08T10:42:19.175Z,96940.22
2022-10-08T10:44:54.386Z,96938.28
2022-10-08T10:47:29.576Z,96939.38
2022-10-08T10:50:01.229Z,96950.47
2022-10-08T10:52:46.817Z,96951.78
2022-10-08T10:55:23.132Z,96948.22
2022-10-08T10:58:03.924Z,96953.53
2022-10-08T11:00:41.365Z,96963.66
2022-10-08T11:03:18.950Z,96961.19
2022-10-08T11:05:51.760Z,96949.47
2022-10-08T11:08:31.441Z,96954.00
2022-10-08T11:11:24.117Z,96962.88
2022-10-08T11:14:07.248Z,96956.63
2022-10-08T11:16:49.638Z,96968.63
2022-10-08T11:19:32.707Z,96965.91
2022-10-08T11:22:08.963Z,96964.78
2022-10-08T11:24:52.782Z,96965.38
2022-10-08T11:27:29.276Z,96963.56
2022-10-08T11:30:04.406Z,96958.34
2022-10-08T11:32:34.517Z,96968.69
2022-10-08T11:35:18.398Z,96967.06
2022-10-08T11:37:51.646Z,96971.03
2022-10-08T11:40:30.289Z,96970.06
2022-10-08T11:43:04.786Z,96962.72
2022-10-08T11:45:36.104Z,96965.31
2022-10-08T11:48:30.286Z,96952.50
2022-10-08T11:51:27.690Z,96956.34
2022-10-08T11:54:05.897Z,96954.13
2022-10-08T11:56:37.060Z,96955.81
2022-10-08T11:59:11.148Z,96960.19
2022-10-08T12:01:54.136Z,96959.06
2022-10-08T12:04:29.053Z,96954.13
2022-10-08T12:07:21.213Z,96955.22
2022-10-08T12:10:25.511Z,96954.13
2022-10-08T12:13:06.686Z,96954.97
2022-10-08T12:16:04.846Z,96951.69
2022-10-08T12:18:58.060Z,96957.84
2022-10-08T12:21:57.364Z,96955.41
2022-10-08T12:24:54.289Z,96958.69
2022-10-08T12:27:27.581Z,96951.09
2022-10-08T12:29:56.893Z,96951.84
2022-10-08T12:32:25.880Z,96951.03
2022-10-08T12:34:54.106Z,96955.84
2022-10-08T12:37:47.534Z,96957.63
2022-10-08T12:40:26.731Z,96955.22
2022-10-08T12:43:05.522Z,96951.47
2022-10-08T12:45:42.625Z,96958.00
2022-10-08T12:48:17.709Z,96946.38
2022-10-08T12:50:57.627Z,96952.59
2022-10-08T12:53:26.819Z,96952.47
2022-10-08T12:55:57.419Z,96951.47
2022-10-08T12:58:29.127Z,96951.47
2022-10-08T13:01:00.006Z,96948.03
2022-10-08T13:03:28.152Z,96941.31
2022-10-08T13:05:57.624Z,96946.47
2022-10-08T13:08:34.812Z,96941.38
2022-10-08T13:11:05.250Z,96948.09
2022-10-08T13:13:43.241Z,96943.06
2022-10-08T13:16:13.892Z,96938.19
2022-10-08T13:18:44.283Z,96948.56
2022-10-08T13:21:39.358Z,96952.75
2022-10-08T13:24:33.139Z,96950.53
2022-10-08T13:27:00.916Z,96949.22
2022-10-08T13:29:31.630Z,96945.22
2022-10-08T13:32:03.224Z,96943.91
2022-10-08T13:34:33.694Z,96946.06
2022-10-08T13:37:03.585Z,96957.81
2022-10-08T13:39:36.595Z,96947.88
2022-10-08T13:42:10.214Z,96948.38
2022-10-08T13:44:39.908Z,96933.88
2022-10-08T13:47:10.379Z,96947.22
2022-10-08T13:49:38.148Z,96952.47
2022-10-08T13:52:05.942Z,96949.47
2022-10-08T13:54:38.098Z,96952.50
2022-10-08T13:57:09.928Z,96952.59
2022-10-08T13:59:37.981Z,96946.38
2022-10-08T14:02:06.717Z,96953.28
2022-10-08T14:04:34.467Z,96945.78
2022-10-08T14:07:03.423Z,96947.75
2022-10-08T14:09:31.520Z,96951.88
2022-10-08T14:12:05.060Z,96952.81
2022-10-08T14:14:32.801Z,96957.38
2022-10-08T14:17:00.480Z,96951.97
2022-10-08T14:19:28.188Z,96946.75
2022-10-08T14:21:57.688Z,96956.47
2022-10-08T14:24:25.433Z,96950.38
2022-10-08T14:26:53.337Z,96950.38
2022-10-08T14:29:22.532Z,96948.13
2022-10-08T14:31:50.287Z,96948.44
2022-10-08T14:34:17.982Z,96944.34
2022-10-08T14:36:45.739Z,96940.13
2022-10-08T14:39:13.461Z,96946.38
2022-10-08T14:41:43.003Z,96955.75
2022-10-08T14:44:12.069Z,96948.53
2022-10-08T14:46:41.142Z,96948.28
2022-10-08T14:49:08.833Z,96939.88
2022-10-08T14:51:39.212Z,96946.25
2022-10-08T14:54:07.434Z,96947.72
2022-10-08T14:56:35.641Z,96951.81
2022-10-08T14:59:03.537Z,96948.16
2022-10-08T15:01:31.620Z,96955.16
2022-10-08T15:04:00.788Z,96947.56
2022-10-08T15:06:28.509Z,96942.94
2022-10-08T15:08:56.233Z,96934.13
2022-10-08T15:11:24.187Z,96936.22
2022-10-08T15:13:53.478Z,96940.47
2022-10-08T15:16:21.263Z,96935.78
2022-10-08T15:18:49.084Z,96937.31
2022-10-08T15:21:18.632Z,96952.16
2022-10-08T15:23:46.388Z,96940.59
2022-10-08T15:26:19.106Z,96939.53
2022-10-08T15:28:47.135Z,96944.34
2022-10-08T15:31:17.059Z,96952.41
2022-10-08T15:33:46.492Z,96958.81
2022-10-08T15:36:19.924Z,96950.41
2022-10-08T15:38:48.462Z,96951.25
2022-10-08T15:41:17.364Z,96952.03
2022-10-08T15:43:45.114Z,96957.03
2022-10-08T15:46:16.496Z,96951.38
2022-10-08T15:48:51.966Z,96948.47
2022-10-08T15:51:21.481Z,96955.97
2022-10-08T15:53:49.552Z,96960.84
2022-10-08T15:56:17.740Z,96954.06
2022-10-08T15:58:50.732Z,96949.28
2022-10-08T16:01:21.552Z,96955.13
2022-10-08T16:03:50.936Z,96948.28
2022-10-08T16:06:22.050Z,96949.91
2022-10-08T16:08:49.958Z,96961.16
2022-10-08T16:11:20.089Z,96969.13
2022-10-08T16:13:49.445Z,96969.59
2022-10-08T16:16:17.940Z,96975.84
2022-10-08T16:18:46.880Z,96984.22
2022-10-08T16:21:15.208Z,96981.06
2022-10-08T16:23:44.466Z,96987.09
2022-10-08T16:26:14.235Z,96991.41
2022-10-08T16:28:42.169Z,96994.66
2022-10-08T16:31:11.338Z,97002.72
2022-10-08T16:33:39.479Z,97003.50
2022-10-08T16:36:09.105Z,96994.41
2022-10-08T16:38:39.733Z,97012.28
2022-10-08T16:41:17.703Z,97012.69
2022-10-08T16:43:47.239Z,97008.50
2022-10-08T16:46:16.727Z,97012.31
2022-10-08T16:48:45.674Z,97009.72
2022-10-08T16:51:13.392Z,97007.53
2022-10-08T16:53:41.090Z,97004.25
2022-10-08T16:56:08.768Z,97007.78
2022-10-08T16:58:37.794Z,97010.13
2022-10-08T17:01:08.149Z,97016.25
2022-10-08T17:03:36.622Z,97012.72
2022-10-08T17:06:04.966Z,97016.00
2022-10-08T17:08:32.764Z,97024.75
2022-10-08T17:11:04.692Z,97032.16
2022-10-08T17:13:32.388Z,97039.75
2022-10-08T17:16:02.817Z,97044.66
2022-10-08T17:18:32.465Z,97042.09
2022-10-08T17:21:01.241Z,97046.97
2022-10-08T17:23:34.367Z,97038.81
2022-10-08T17:26:04.622Z,97047.81
2022-10-08T17:28:35.044Z,97052.59
2022-10-08T17:31:06.614Z,97057.63
2022-10-08T17:33:35.862Z,97062.66
2022-10-08T17:36:06.635Z,97071.75
2022-10-08T17:38:35.616Z,97073.84
2022-10-08T17:41:11.427Z,97074.34
2022-10-08T17:43:39.102Z,97084.13
2022-10-08T17:46:10.467Z,97081.78
2022-10-08T17:48:38.432Z,97084.47
2022-10-08T17:51:07.086Z,97091.94
2022-10-08T17:53:35.068Z,97089.25
2022-10-08T17:56:04.503Z,97098.69
2022-10-08T17:58:32.464Z,97106.75
2022-10-08T18:01:06.809Z,97108.44
2022-10-08T18:03:37.239Z,97102.22
2022-10-08T18:06:06.465Z,97102.56
2022-10-08T18:08:34.692Z,97105.38
2022-10-08T18:11:03.170Z,97090.56
2022-10-08T18:13:30.891Z,97098.47
2022-10-08T18:16:02.917Z,97100.84
2022-10-08T18:18:30.403Z,97107.94
2022-10-08T18:21:01.204Z,97108.63
2022-10-08T18:23:29.735Z,97117.19
2022-10-08T18:26:08.677Z,97109.59
2022-10-08T18:28:36.477Z,97109.94
2022-10-08T18:31:05.865Z,97124.31
2022-10-08T18:33:34.871Z,97125.22
2022-10-08T18:36:12.925Z,97116.38
2022-10-08T18:38:41.106Z,97131.16
2022-10-08T18:41:13.445Z,97117.03
2022-10-08T18:43:41.320Z,97125.56
2022-10-08T18:46:09.438Z,97129.09
2022-10-08T18:48:37.929Z,97132.13
2022-10-08T18:51:07.254Z,97137.00
2022-10-08T18:53:38.046Z,97133.19
2022-10-08T18:56:07.813Z,97132.81
2022-10-08T18:58:35.814Z,97119.97
2022-10-08T19:01:03.476Z,97130.22
2022-10-08T19:03:31.166Z,97133.19
2022-10-08T19:05:59.016Z,97141.22
2022-10-08T19:08:26.685Z,97139.47
2022-10-08T19:10:55.841Z,97142.25
2022-10-08T19:13:23.511Z,97132.81
2022-10-08T19:15:51.233Z,97138.16
2022-10-08T19:18:18.949Z,97142.75
2022-10-08T19:20:46.642Z,97143.19
2022-10-08T19:23:14.295Z,97137.03
2022-10-08T19:25:42.110Z,97137.38
2022-10-08T19:28:11.210Z,97144.84
2022-10-08T19:30:38.897Z,97139.13
2022-10-08T19:33:06.609Z,97141.81
2022-10-08T19:35:34.280Z,97140.88
2022-10-08T19:38:02.035Z,97145.19
2022-10-08T19:40:29.725Z,97142.41
2022-10-08T19:42:57.403Z,97141.56
2022-10-08T19:45:26.468Z,97152.56
2022-10-08T19:47:54.116Z,97153.97
2022-10-08T19:50:21.827Z,97147.41
2022-10-08T19:52:51.877Z,97145.56
2022-10-08T19:55:19.759Z,97156.53
2022-10-08T19:57:47.408Z,97159.44
2022-10-08T20:00:15.921Z,97150.69
2022-10-08T20:02:45.027Z,97151.13
2022-10-08T20:05:12.801Z,97152.41
2022-10-08T20:07:40.519Z,97158.59
2022-10-08T20:10:08.790Z,97156.53
2022-10-08T20:12:36.499Z,97152.22
2022-10-08T20:15:04.341Z,97154.75
2022-10-08T20:17:32.035Z,97162.69
2022-10-08T20:20:15.240Z,97145.88
2022-10-08T20:22:49.084Z,97151.72
2022-10-08T20:25:19.404Z,97149.81
2022-10-08T20:27:47.169Z,97150.63
2022-10-08T20:30:15.490Z,97155.06
2022-10-08T20:32:43.253Z,97158.34
2022-10-08T20:35:12.271Z,97167.22
2022-10-08T20:37:40.016Z,97166.63
2022-10-08T20:40:08.085Z,97159.38
2022-10-08T20:42:35.753Z,97155.69
2022-10-08T20:45:03.495Z,97161.41
2022-10-08T20:47:31.205Z,97170.03
2022-10-08T20:49:58.921Z,97161.19
2022-10-08T20:52:27.993Z,97166.78
2022-10-08T20:54:55.723Z,97162.63
2022-10-08T20:57:23.395Z,97156.19
2022-10-08T20:59:51.094Z,97150.84
2022-10-08T21:02:19.862Z,97155.50
2022-10-08T21:04:47.780Z,97151.97
2022-10-08T21:07:15.532Z,97157.72
2022-10-08T21:09:44.584Z,97159.34
2022-10-08T21:12:12.258Z,97157.16
2022-10-08T21:14:39.987Z,97157.53
2022-10-08T21:17:07.689Z,97150.44
2022-10-08T21:19:35.518Z,97158.25
2022-10-08T21:22:03.217Z,97162.13
2022-10-08T21:24:31.059Z,97156.53
2022-10-08T21:27:00.091Z,97146.72
2022-10-08T21:29:27.875Z,97157.72
2022-10-08T21:31:55.618Z,97160.28
2022-10-08T21:34:23.344Z,97158.78
2022-10-08T21:36:51.035Z,97155.03
2022-10-08T21:39:18.865Z,97150.66
2022-10-08T21:41:47.583Z,97153.22
2022-10-08T21:44:16.783Z,97153.94
2022-10-08T21:46:44.547Z,97156.75
2022-10-08T21:49:14.267Z,97153.81
2022-10-08T21:51:42.396Z,97152.53
2022-10-08T21:54:11.171Z,97153.00
2022-10-08T21:56:40.611Z,97149.03
2022-10-08T21:59:10.097Z,97143.66
2022-10-08T22:01:41.678Z,97149.63
2022-10-08T22:04:11.223Z,97150.91
2022-10-08T22:06:40.550Z,97140.28
2022-10-08T22:09:10.632Z,97144.44
2022-10-08T22:11:38.479Z,97147.97
2022-10-08T22:14:07.067Z,97144.22
2022-10-08T22:16:34.986Z,97128.94
2022-10-08T22:19:04.423Z,97145.53
2022-10-08T22:21:32.589Z,97137.84
2022-10-08T22:24:00.882Z,97136.66
2022-10-08T22:26:30.402Z,97127.41
2022-10-08T22:28:59.139Z,97128.25
2022-10-08T22:31:28.128Z,97129.06
2022-10-08T22:33:56.370Z,97124.16
2022-10-08T22:36:27.437Z,97122.41
2022-10-08T22:38:55.351Z,97120.78
2022-10-08T22:41:25.492Z,97118.84
2022-10-08T22:43:53.770Z,97118.59
2022-10-08T22:46:23.657Z,97114.06
2022-10-08T22:48:51.374Z,97114.63
2022-10-08T22:51:21.428Z,97105.31
2022-10-08T22:53:50.543Z,97108.56
2022-10-08T22:56:21.725Z,97108.22
2022-10-08T22:58:49.823Z,97115.13
2022-10-08T23:01:22.701Z,97109.00
2022-10-08T23:03:51.012Z,97104.25
2022-10-08T23:06:21.787Z,97098.53
2022-10-08T23:08:54.415Z,97108.31
2022-10-08T23:11:22.484Z,97094.44
2022-10-08T23:13:55.529Z,97095.59
2022-10-08T23:16:24.859Z,97095.94
2022-10-08T23:18:55.276Z,97097.22
2022-10-08T23:21:23.830Z,97082.19
2022-10-08T23:23:54.090Z,97086.84
2022-10-08T23:26:23.092Z,97083.09
2022-10-08T23:28:52.294Z,97084.88
2022-10-08T23:31:22.399Z,97079.03
2022-10-08T23:33:51.700Z,97082.28
2022-10-08T23:36:21.268Z,97073.41
2022-10-08T23:38:49.437Z,97073.78
2022-10-08T23:41:18.730Z,97077.47
2022-10-08T23:43:48.110Z,97064.53
2022-10-08T23:46:18.881Z,97075.72
2022-10-08T23:48:47.232Z,97070.72
2022-10-08T23:51:16.345Z,97068.97
2022-10-08T23:53:44.814Z,97054.38
2022-10-08T23:56:13.012Z,97061.97
2022-10-08T23:58:42.339Z,97059.97
